sensor_id;sensor_type;location;lat;lon;timestamp;temperature;humidity
40822;DHT22;26542;50.836;5.356;2023-04-08T00:00:17;10.50;99.90
40822;DHT22;26542;50.836;5.356;2023-04-08T00:02:43;10.60;99.90
40822;DHT22;26542;50.836;5.356;2023-04-08T00:05:09;10.40;99.90
40822;DHT22;26542;50.836;5.356;2023-04-08T00:07:35;10.50;99.90
40822;DHT22;26542;50.836;5.356;2023-04-08T00:10:01;10.50;99.90
40822;DHT22;26542;50.836;5.356;2023-04-08T00:12:27;10.50;99.90
40822;DHT22;26542;50.836;5.356;2023-04-08T00:14:53;10.50;99.90
40822;DHT22;26542;50.836;5.356;2023-04-08T00:17:18;10.50;99.90
40822;DHT22;26542;50.836;5.356;2023-04-08T00:19:44;10.50;99.90
40822;DHT22;26542;50.836;5.356;2023-04-08T00:22:10;10.50;99.90
40822;DHT22;26542;50.836;5.356;2023-04-08T00:24:36;10.50;99.90
40822;DHT22;26542;50.836;5.356;2023-04-08T00:27:02;10.60;99.90
40822;DHT22;26542;50.836;5.356;2023-04-08T00:29:28;10.60;99.90
40822;DHT22;26542;50.836;5.356;2023-04-08T00:31:54;10.60;99.90
40822;DHT22;26542;50.836;5.356;2023-04-08T00:34:20;10.60;99.90
40822;DHT22;26542;50.836;5.356;2023-04-08T00:36:46;10.50;99.90
40822;DHT22;26542;50.836;5.356;2023-04-08T00:39:12;10.60;99.90
40822;DHT22;26542;50.836;5.356;2023-04-08T00:41:38;10.50;99.90
40822;DHT22;26542;50.836;5.356;2023-04-08T00:44:04;10.50;99.90
40822;DHT22;26542;50.836;5.356;2023-04-08T00:46:35;10.50;99.90
40822;DHT22;26542;50.836;5.356;2023-04-08T00:49:01;10.40;99.90
40822;DHT22;26542;50.836;5.356;2023-04-08T00:51:30;10.40;99.90
40822;DHT22;26542;50.836;5.356;2023-04-08T00:53:56;10.40;99.90
40822;DHT22;26542;50.836;5.356;2023-04-08T00:56:22;10.50;99.90
40822;DHT22;26542;50.836;5.356;2023-04-08T00:58:49;10.50;99.90
40822;DHT22;26542;50.836;5.356;2023-04-08T01:01:25;10.50;99.90
40822;DHT22;26542;50.836;5.356;2023-04-08T01:04:12;10.50;99.90
40822;DHT22;26542;50.836;5.356;2023-04-08T01:06:53;10.50;99.90
40822;DHT22;26542;50.836;5.356;2023-04-08T01:09:26;10.40;99.90
40822;DHT22;26542;50.836;5.356;2023-04-08T01:11:53;10.40;99.90
40822;DHT22;26542;50.836;5.356;2023-04-08T01:14:23;10.40;99.90
40822;DHT22;26542;50.836;5.356;2023-04-08T01:16:50;10.40;99.90
40822;DHT22;26542;50.836;5.356;2023-04-08T01:19:34;10.40;99.90
40822;DHT22;26542;50.836;5.356;2023-04-08T01:22:15;10.40;99.90
40822;DHT22;26542;50.836;5.356;2023-04-08T01:24:44;10.40;99.90
40822;DHT22;26542;50.836;5.356;2023-04-08T01:27:12;10.40;99.90
40822;DHT22;26542;50.836;5.356;2023-04-08T01:29:39;10.40;99.90
40822;DHT22;26542;50.836;5.356;2023-04-08T01:32:06;10.40;99.90
40822;DHT22;26542;50.836;5.356;2023-04-08T01:34:34;10.40;99.90
40822;DHT22;26542;50.836;5.356;2023-04-08T01:37:01;10.40;99.90
40822;DHT22;26542;50.836;5.356;2023-04-08T01:39:28;10.40;99.90
40822;DHT22;26542;50.836;5.356;2023-04-08T01:41:55;10.40;99.90
40822;DHT22;26542;50.836;5.356;2023-04-08T01:44:22;10.40;99.90
40822;DHT22;26542;50.836;5.356;2023-04-08T01:46:48;10.40;99.90
40822;DHT22;26542;50.836;5.356;2023-04-08T01:49:15;10.40;99.90
40822;DHT22;26542;50.836;5.356;2023-04-08T01:51:42;10.50;99.90
40822;DHT22;26542;50.836;5.356;2023-04-08T01:54:09;10.50;99.90
40822;DHT22;26542;50.836;5.356;2023-04-08T01:56:38;10.50;99.90
40822;DHT22;26542;50.836;5.356;2023-04-08T01:59:12;10.50;99.90
40822;DHT22;26542;50.836;5.356;2023-04-08T02:01:41;10.50;99.90
40822;DHT22;26542;50.836;5.356;2023-04-08T02:04:07;10.50;99.90
40822;DHT22;26542;50.836;5.356;2023-04-08T02:06:33;10.50;99.90
40822;DHT22;26542;50.836;5.356;2023-04-08T02:08:59;10.40;99.90
40822;DHT22;26542;50.836;5.356;2023-04-08T02:11:26;10.50;99.90
40822;DHT22;26542;50.836;5.356;2023-04-08T02:13:53;10.50;99.90
40822;DHT22;26542;50.836;5.356;2023-04-08T02:16:30;10.50;99.90
40822;DHT22;26542;50.836;5.356;2023-04-08T02:19:10;10.40;99.90
40822;DHT22;26542;50.836;5.356;2023-04-08T02:21:43;10.40;99.90
40822;DHT22;26542;50.836;5.356;2023-04-08T02:24:12;10.40;99.90
40822;DHT22;26542;50.836;5.356;2023-04-08T02:26:39;10.40;99.90
40822;DHT22;26542;50.836;5.356;2023-04-08T02:29:06;10.40;99.90
40822;DHT22;26542;50.836;5.356;2023-04-08T02:31:38;10.50;99.90
40822;DHT22;26542;50.836;5.356;2023-04-08T02:34:08;10.50;99.90
40822;DHT22;26542;50.836;5.356;2023-04-08T02:36:35;10.50;99.90
40822;DHT22;26542;50.836;5.356;2023-04-08T02:39:01;10.40;99.90
40822;DHT22;26542;50.836;5.356;2023-04-08T02:41:28;10.30;99.90
40822;DHT22;26542;50.836;5.356;2023-04-08T02:43:54;10.30;99.90
40822;DHT22;26542;50.836;5.356;2023-04-08T02:46:20;10.30;99.90
40822;DHT22;26542;50.836;5.356;2023-04-08T02:48:46;10.30;99.90
40822;DHT22;26542;50.836;5.356;2023-04-08T02:51:12;10.30;99.90
40822;DHT22;26542;50.836;5.356;2023-04-08T02:53:37;10.40;99.90
40822;DHT22;26542;50.836;5.356;2023-04-08T02:56:03;10.40;99.90
40822;DHT22;26542;50.836;5.356;2023-04-08T02:58:30;10.30;99.90
40822;DHT22;26542;50.836;5.356;2023-04-08T03:00:55;10.30;99.90
40822;DHT22;26542;50.836;5.356;2023-04-08T03:03:21;10.20;99.90
40822;DHT22;26542;50.836;5.356;2023-04-08T03:05:54;10.10;99.90
40822;DHT22;26542;50.836;5.356;2023-04-08T03:08:20;10.10;99.90
40822;DHT22;26542;50.836;5.356;2023-04-08T03:10:46;10.10;99.90
40822;DHT22;26542;50.836;5.356;2023-04-08T03:13:11;10.10;99.90
40822;DHT22;26542;50.836;5.356;2023-04-08T03:15:37;10.10;99.90
40822;DHT22;26542;50.836;5.356;2023-04-08T03:18:03;10.10;99.90
40822;DHT22;26542;50.836;5.356;2023-04-08T03:20:29;10.10;99.90
40822;DHT22;26542;50.836;5.356;2023-04-08T03:22:54;10.10;99.90
40822;DHT22;26542;50.836;5.356;2023-04-08T03:25:20;10.20;99.90
40822;DHT22;26542;50.836;5.356;2023-04-08T03:27:46;10.20;99.90
40822;DHT22;26542;50.836;5.356;2023-04-08T03:30:11;10.10;99.90
40822;DHT22;26542;50.836;5.356;2023-04-08T03:32:37;10.20;99.90
40822;DHT22;26542;50.836;5.356;2023-04-08T03:35:04;10.20;99.90
40822;DHT22;26542;50.836;5.356;2023-04-08T03:37:30;10.30;99.90
40822;DHT22;26542;50.836;5.356;2023-04-08T03:39:55;10.30;99.90
40822;DHT22;26542;50.836;5.356;2023-04-08T03:42:21;10.40;99.90
40822;DHT22;26542;50.836;5.356;2023-04-08T03:44:47;10.20;99.90
40822;DHT22;26542;50.836;5.356;2023-04-08T03:47:12;10.20;99.90
40822;DHT22;26542;50.836;5.356;2023-04-08T03:49:38;10.10;99.90
40822;DHT22;26542;50.836;5.356;2023-04-08T03:52:04;10.10;99.90
40822;DHT22;26542;50.836;5.356;2023-04-08T03:54:29;10.20;99.90
40822;DHT22;26542;50.836;5.356;2023-04-08T03:56:55;10.20;99.90
40822;DHT22;26542;50.836;5.356;2023-04-08T03:59:21;10.20;99.90
40822;DHT22;26542;50.836;5.356;2023-04-08T04:01:47;10.20;99.90
40822;DHT22;26542;50.836;5.356;2023-04-08T04:04:13;10.30;99.90
40822;DHT22;26542;50.836;5.356;2023-04-08T04:06:39;10.20;99.90
40822;DHT22;26542;50.836;5.356;2023-04-08T04:09:05;10.20;99.90
40822;DHT22;26542;50.836;5.356;2023-04-08T04:11:30;10.20;99.90
40822;DHT22;26542;50.836;5.356;2023-04-08T04:13:58;10.20;99.90
40822;DHT22;26542;50.836;5.356;2023-04-08T04:16:24;10.30;99.90
40822;DHT22;26542;50.836;5.356;2023-04-08T04:18:51;10.30;99.90
40822;DHT22;26542;50.836;5.356;2023-04-08T04:21:17;10.40;99.90
40822;DHT22;26542;50.836;5.356;2023-04-08T04:23:43;10.50;99.90
40822;DHT22;26542;50.836;5.356;2023-04-08T04:26:10;10.50;99.90
40822;DHT22;26542;50.836;5.356;2023-04-08T04:28:36;10.30;99.90
40822;DHT22;26542;50.836;5.356;2023-04-08T04:31:02;10.20;99.90
40822;DHT22;26542;50.836;5.356;2023-04-08T04:33:28;10.10;99.90
40822;DHT22;26542;50.836;5.356;2023-04-08T04:35:54;10.10;99.90
40822;DHT22;26542;50.836;5.356;2023-04-08T04:38:20;10.10;99.90
40822;DHT22;26542;50.836;5.356;2023-04-08T04:40:46;10.10;99.90
40822;DHT22;26542;50.836;5.356;2023-04-08T04:43:11;10.20;99.90
40822;DHT22;26542;50.836;5.356;2023-04-08T04:45:37;10.10;99.90
40822;DHT22;26542;50.836;5.356;2023-04-08T04:48:03;10.20;99.90
40822;DHT22;26542;50.836;5.356;2023-04-08T04:50:28;10.20;99.90
40822;DHT22;26542;50.836;5.356;2023-04-08T04:52:55;10.10;99.90
40822;DHT22;26542;50.836;5.356;2023-04-08T04:55:20;10.20;99.90
40822;DHT22;26542;50.836;5.356;2023-04-08T04:57:47;10.10;99.90
40822;DHT22;26542;50.836;5.356;2023-04-08T05:00:14;10.10;99.90
40822;DHT22;26542;50.836;5.356;2023-04-08T05:02:40;10.10;99.90
40822;DHT22;26542;50.836;5.356;2023-04-08T05:05:06;10.00;99.90
40822;DHT22;26542;50.836;5.356;2023-04-08T05:07:36;10.10;99.90
40822;DHT22;26542;50.836;5.356;2023-04-08T05:10:02;10.10;99.90
40822;DHT22;26542;50.836;5.356;2023-04-08T05:12:28;10.10;99.90
40822;DHT22;26542;50.836;5.356;2023-04-08T05:14:54;10.10;99.90
40822;DHT22;26542;50.836;5.356;2023-04-08T05:17:19;10.10;99.90
40822;DHT22;26542;50.836;5.356;2023-04-08T05:19:45;10.00;99.90
40822;DHT22;26542;50.836;5.356;2023-04-08T05:22:11;10.10;99.90
40822;DHT22;26542;50.836;5.356;2023-04-08T05:24:36;10.10;99.90
40822;DHT22;26542;50.836;5.356;2023-04-08T05:27:02;10.10;99.90
40822;DHT22;26542;50.836;5.356;2023-04-08T05:29:28;10.10;99.90
40822;DHT22;26542;50.836;5.356;2023-04-08T05:31:53;10.20;99.90
40822;DHT22;26542;50.836;5.356;2023-04-08T05:34:20;10.10;99.90
40822;DHT22;26542;50.836;5.356;2023-04-08T05:36:48;10.20;99.90
40822;DHT22;26542;50.836;5.356;2023-04-08T05:39:17;10.20;99.90
40822;DHT22;26542;50.836;5.356;2023-04-08T05:41:43;10.20;99.90
40822;DHT22;26542;50.836;5.356;2023-04-08T05:44:09;10.20;99.90
40822;DHT22;26542;50.836;5.356;2023-04-08T05:46:36;10.20;99.90
40822;DHT22;26542;50.836;5.356;2023-04-08T05:49:02;10.20;99.90
40822;DHT22;26542;50.836;5.356;2023-04-08T05:51:28;10.20;99.90
40822;DHT22;26542;50.836;5.356;2023-04-08T05:53:54;10.30;99.90
40822;DHT22;26542;50.836;5.356;2023-04-08T05:56:20;10.30;99.90
40822;DHT22;26542;50.836;5.356;2023-04-08T05:58:46;10.30;99.90
40822;DHT22;26542;50.836;5.356;2023-04-08T06:01:12;10.30;99.90
40822;DHT22;26542;50.836;5.356;2023-04-08T06:03:37;10.40;99.90
40822;DHT22;26542;50.836;5.356;2023-04-08T06:06:08;10.50;99.90
40822;DHT22;26542;50.836;5.356;2023-04-08T06:08:35;10.50;99.90
40822;DHT22;26542;50.836;5.356;2023-04-08T06:11:01;10.40;99.90
40822;DHT22;26542;50.836;5.356;2023-04-08T06:13:28;10.40;99.90
40822;DHT22;26542;50.836;5.356;2023-04-08T06:15:54;10.40;99.90
40822;DHT22;26542;50.836;5.356;2023-04-08T06:18:20;10.40;99.90
40822;DHT22;26542;50.836;5.356;2023-04-08T06:20:45;10.40;99.90
40822;DHT22;26542;50.836;5.356;2023-04-08T06:23:11;10.50;99.90
40822;DHT22;26542;50.836;5.356;2023-04-08T06:25:37;10.50;99.90
40822;DHT22;26542;50.836;5.356;2023-04-08T06:28:03;10.50;99.90
40822;DHT22;26542;50.836;5.356;2023-04-08T06:30:28;10.50;99.90
40822;DHT22;26542;50.836;5.356;2023-04-08T06:32:54;10.50;99.90
40822;DHT22;26542;50.836;5.356;2023-04-08T06:35:20;10.50;99.90
40822;DHT22;26542;50.836;5.356;2023-04-08T06:37:46;10.60;99.90
40822;DHT22;26542;50.836;5.356;2023-04-08T06:40:11;10.60;99.90
40822;DHT22;26542;50.836;5.356;2023-04-08T06:42:37;10.60;99.90
40822;DHT22;26542;50.836;5.356;2023-04-08T06:45:05;10.70;99.90
40822;DHT22;26542;50.836;5.356;2023-04-08T06:47:31;10.70;99.90
40822;DHT22;26542;50.836;5.356;2023-04-08T06:49:57;10.80;99.90
40822;DHT22;26542;50.836;5.356;2023-04-08T06:52:23;10.80;99.90
40822;DHT22;26542;50.836;5.356;2023-04-08T06:54:49;11.00;99.90
40822;DHT22;26542;50.836;5.356;2023-04-08T06:57:15;11.10;99.90
40822;DHT22;26542;50.836;5.356;2023-04-08T06:59:42;11.10;99.90
40822;DHT22;26542;50.836;5.356;2023-04-08T07:02:07;11.10;99.90
40822;DHT22;26542;50.836;5.356;2023-04-08T07:04:33;11.10;99.90
40822;DHT22;26542;50.836;5.356;2023-04-08T07:06:59;11.10;99.90
40822;DHT22;26542;50.836;5.356;2023-04-08T07:09:24;11.20;99.90
40822;DHT22;26542;50.836;5.356;2023-04-08T07:11:50;11.20;99.90
40822;DHT22;26542;50.836;5.356;2023-04-08T07:14:16;11.30;99.90
40822;DHT22;26542;50.836;5.356;2023-04-08T07:16:42;11.30;99.90
40822;DHT22;26542;50.836;5.356;2023-04-08T07:19:07;11.40;99.90
40822;DHT22;26542;50.836;5.356;2023-04-08T07:21:33;11.50;99.90
40822;DHT22;26542;50.836;5.356;2023-04-08T07:23:58;11.50;99.90
40822;DHT22;26542;50.836;5.356;2023-04-08T07:26:24;11.60;99.90
40822;DHT22;26542;50.836;5.356;2023-04-08T07:28:50;11.60;99.90
40822;DHT22;26542;50.836;5.356;2023-04-08T07:31:17;11.70;99.90
40822;DHT22;26542;50.836;5.356;2023-04-08T07:33:44;11.70;99.90
40822;DHT22;26542;50.836;5.356;2023-04-08T07:36:11;11.70;99.90
40822;DHT22;26542;50.836;5.356;2023-04-08T07:38:38;11.80;99.90
40822;DHT22;26542;50.836;5.356;2023-04-08T07:41:03;11.80;99.90
40822;DHT22;26542;50.836;5.356;2023-04-08T07:43:30;11.90;99.90
40822;DHT22;26542;50.836;5.356;2023-04-08T07:46:06;11.90;99.90
40822;DHT22;26542;50.836;5.356;2023-04-08T07:48:33;11.90;99.90
40822;DHT22;26542;50.836;5.356;2023-04-08T07:51:13;12.00;99.90
40822;DHT22;26542;50.836;5.356;2023-04-08T07:53:39;12.00;99.90
40822;DHT22;26542;50.836;5.356;2023-04-08T07:56:12;11.80;99.90
40822;DHT22;26542;50.836;5.356;2023-04-08T07:58:38;12.00;99.90
40822;DHT22;26542;50.836;5.356;2023-04-08T08:01:18;12.00;99.90
40822;DHT22;26542;50.836;5.356;2023-04-08T08:03:44;12.10;99.90
40822;DHT22;26542;50.836;5.356;2023-04-08T08:06:10;12.10;99.90
40822;DHT22;26542;50.836;5.356;2023-04-08T08:08:36;12.20;99.90
40822;DHT22;26542;50.836;5.356;2023-04-08T08:11:02;12.20;99.90
40822;DHT22;26542;50.836;5.356;2023-04-08T08:13:28;12.10;99.90
40822;DHT22;26542;50.836;5.356;2023-04-08T08:15:53;12.20;99.90
40822;DHT22;26542;50.836;5.356;2023-04-08T08:18:19;12.30;99.90
40822;DHT22;26542;50.836;5.356;2023-04-08T08:20:45;12.30;99.90
40822;DHT22;26542;50.836;5.356;2023-04-08T08:23:11;12.40;99.90
40822;DHT22;26542;50.836;5.356;2023-04-08T08:25:36;12.60;99.90
40822;DHT22;26542;50.836;5.356;2023-04-08T08:28:02;12.70;99.90
40822;DHT22;26542;50.836;5.356;2023-04-08T08:30:28;12.80;99.90
40822;DHT22;26542;50.836;5.356;2023-04-08T08:32:53;12.80;99.90
40822;DHT22;26542;50.836;5.356;2023-04-08T08:35:20;12.70;99.90
40822;DHT22;26542;50.836;5.356;2023-04-08T08:37:46;12.70;99.90
40822;DHT22;26542;50.836;5.356;2023-04-08T08:40:13;12.70;99.90
40822;DHT22;26542;50.836;5.356;2023-04-08T08:42:38;12.70;99.90
40822;DHT22;26542;50.836;5.356;2023-04-08T08:45:05;12.70;99.90
40822;DHT22;26542;50.836;5.356;2023-04-08T08:47:31;12.80;99.90
40822;DHT22;26542;50.836;5.356;2023-04-08T08:49:57;12.90;99.90
40822;DHT22;26542;50.836;5.356;2023-04-08T08:52:23;13.00;99.90
40822;DHT22;26542;50.836;5.356;2023-04-08T08:54:56;13.00;99.90
40822;DHT22;26542;50.836;5.356;2023-04-08T08:57:22;13.00;99.90
40822;DHT22;26542;50.836;5.356;2023-04-08T08:59:48;13.10;99.90
40822;DHT22;26542;50.836;5.356;2023-04-08T09:02:28;13.20;99.90
40822;DHT22;26542;50.836;5.356;2023-04-08T09:05:02;13.20;99.90
40822;DHT22;26542;50.836;5.356;2023-04-08T09:07:29;13.20;99.90
40822;DHT22;26542;50.836;5.356;2023-04-08T09:09:57;13.20;99.90
40822;DHT22;26542;50.836;5.356;2023-04-08T09:12:24;13.30;99.90
40822;DHT22;26542;50.836;5.356;2023-04-08T09:14:50;13.30;99.90
40822;DHT22;26542;50.836;5.356;2023-04-08T09:17:30;13.30;99.90
40822;DHT22;26542;50.836;5.356;2023-04-08T09:22:56;13.50;99.90
40822;DHT22;26542;50.836;5.356;2023-04-08T09:25:26;13.40;99.90
40822;DHT22;26542;50.836;5.356;2023-04-08T09:27:52;13.50;99.90
40822;DHT22;26542;50.836;5.356;2023-04-08T09:30:22;13.60;99.90
40822;DHT22;26542;50.836;5.356;2023-04-08T09:32:56;13.70;99.90
40822;DHT22;26542;50.836;5.356;2023-04-08T09:35:23;13.90;99.90
40822;DHT22;26542;50.836;5.356;2023-04-08T09:37:49;14.00;99.90
40822;DHT22;26542;50.836;5.356;2023-04-08T09:40:16;14.20;99.90
40822;DHT22;26542;50.836;5.356;2023-04-08T09:42:47;14.30;99.90
40822;DHT22;26542;50.836;5.356;2023-04-08T09:45:15;14.30;99.90
40822;DHT22;26542;50.836;5.356;2023-04-08T09:50:32;14.60;99.90
40822;DHT22;26542;50.836;5.356;2023-04-08T09:53:13;14.60;99.90
40822;DHT22;26542;50.836;5.356;2023-04-08T09:55:50;14.70;99.90
40822;DHT22;26542;50.836;5.356;2023-04-08T09:58:38;14.90;99.90
40822;DHT22;26542;50.836;5.356;2023-04-08T10:01:08;14.70;99.90
40822;DHT22;26542;50.836;5.356;2023-04-08T10:03:47;14.70;99.90
40822;DHT22;26542;50.836;5.356;2023-04-08T10:06:14;14.80;99.90
40822;DHT22;26542;50.836;5.356;2023-04-08T10:08:41;14.70;99.90
40822;DHT22;26542;50.836;5.356;2023-04-08T10:11:07;14.70;99.90
40822;DHT22;26542;50.836;5.356;2023-04-08T10:13:33;14.70;99.90
40822;DHT22;26542;50.836;5.356;2023-04-08T10:16:22;14.80;99.90
40822;DHT22;26542;50.836;5.356;2023-04-08T10:18:50;14.80;99.90
40822;DHT22;26542;50.836;5.356;2023-04-08T10:21:37;15.10;99.90
40822;DHT22;26542;50.836;5.356;2023-04-08T10:24:08;15.50;99.90
40822;DHT22;26542;50.836;5.356;2023-04-08T10:26:36;15.60;99.80
40822;DHT22;26542;50.836;5.356;2023-04-08T10:31:49;15.90;98.70
40822;DHT22;26542;50.836;5.356;2023-04-08T10:34:16;16.20;98.50
40822;DHT22;26542;50.836;5.356;2023-04-08T10:36:45;16.20;96.30
40822;DHT22;26542;50.836;5.356;2023-04-08T10:39:12;16.20;96.20
40822;DHT22;26542;50.836;5.356;2023-04-08T10:44:21;16.30;96.50
40822;DHT22;26542;50.836;5.356;2023-04-08T10:46:49;16.50;96.50
40822;DHT22;26542;50.836;5.356;2023-04-08T10:49:15;16.70;95.00
40822;DHT22;26542;50.836;5.356;2023-04-08T10:51:42;16.70;96.00
40822;DHT22;26542;50.836;5.356;2023-04-08T10:54:17;16.60;95.40
40822;DHT22;26542;50.836;5.356;2023-04-08T10:56:45;16.50;96.60
40822;DHT22;26542;50.836;5.356;2023-04-08T10:59:13;16.50;97.40
40822;DHT22;26542;50.836;5.356;2023-04-08T11:01:41;16.40;96.50
40822;DHT22;26542;50.836;5.356;2023-04-08T11:04:16;16.40;97.60
40822;DHT22;26542;50.836;5.356;2023-04-08T11:06:48;16.20;98.60
40822;DHT22;26542;50.836;5.356;2023-04-08T11:09:14;16.20;98.40
40822;DHT22;26542;50.836;5.356;2023-04-08T11:11:44;16.20;97.10
40822;DHT22;26542;50.836;5.356;2023-04-08T11:14:11;16.10;97.80
40822;DHT22;26542;50.836;5.356;2023-04-08T11:16:37;16.10;97.70
40822;DHT22;26542;50.836;5.356;2023-04-08T11:19:04;16.10;98.50
40822;DHT22;26542;50.836;5.356;2023-04-08T11:21:31;16.20;96.90
40822;DHT22;26542;50.836;5.356;2023-04-08T11:23:59;16.30;97.40
40822;DHT22;26542;50.836;5.356;2023-04-08T11:26:26;16.30;98.40
40822;DHT22;26542;50.836;5.356;2023-04-08T11:28:53;16.30;96.70
40822;DHT22;26542;50.836;5.356;2023-04-08T11:31:19;16.50;95.90
40822;DHT22;26542;50.836;5.356;2023-04-08T11:33:47;16.60;95.20
40822;DHT22;26542;50.836;5.356;2023-04-08T11:36:13;16.80;97.50
40822;DHT22;26542;50.836;5.356;2023-04-08T11:38:39;16.90;96.30
40822;DHT22;26542;50.836;5.356;2023-04-08T11:41:08;17.10;96.90
40822;DHT22;26542;50.836;5.356;2023-04-08T11:43:35;17.30;96.20
40822;DHT22;26542;50.836;5.356;2023-04-08T11:46:10;17.50;93.80
40822;DHT22;26542;50.836;5.356;2023-04-08T11:48:37;17.50;95.10
40822;DHT22;26542;50.836;5.356;2023-04-08T11:51:06;17.40;95.40
40822;DHT22;26542;50.836;5.356;2023-04-08T11:53:36;17.30;95.00
40822;DHT22;26542;50.836;5.356;2023-04-08T11:56:16;17.20;93.90
40822;DHT22;26542;50.836;5.356;2023-04-08T11:58:42;17.00;95.10
40822;DHT22;26542;50.836;5.356;2023-04-08T12:01:07;16.90;94.30
40822;DHT22;26542;50.836;5.356;2023-04-08T12:03:33;16.80;96.10
40822;DHT22;26542;50.836;5.356;2023-04-08T12:05:58;17.00;94.10
40822;DHT22;26542;50.836;5.356;2023-04-08T12:08:25;17.10;96.60
40822;DHT22;26542;50.836;5.356;2023-04-08T12:10:50;17.30;95.60
40822;DHT22;26542;50.836;5.356;2023-04-08T12:13:16;17.50;93.10
40822;DHT22;26542;50.836;5.356;2023-04-08T12:15:42;17.40;92.60
40822;DHT22;26542;50.836;5.356;2023-04-08T12:18:07;17.50;94.10
40822;DHT22;26542;50.836;5.356;2023-04-08T12:20:33;17.60;94.90
40822;DHT22;26542;50.836;5.356;2023-04-08T12:22:59;17.80;93.40
40822;DHT22;26542;50.836;5.356;2023-04-08T12:25:24;17.60;92.10
40822;DHT22;26542;50.836;5.356;2023-04-08T12:27:50;17.60;92.10
40822;DHT22;26542;50.836;5.356;2023-04-08T12:30:16;17.50;93.40
40822;DHT22;26542;50.836;5.356;2023-04-08T12:32:41;17.30;92.80
40822;DHT22;26542;50.836;5.356;2023-04-08T12:35:10;17.10;92.00
40822;DHT22;26542;50.836;5.356;2023-04-08T12:37:35;17.10;92.70
40822;DHT22;26542;50.836;5.356;2023-04-08T12:40:01;17.10;92.30
40822;DHT22;26542;50.836;5.356;2023-04-08T12:42:27;17.30;93.50
40822;DHT22;26542;50.836;5.356;2023-04-08T12:44:53;17.50;93.40
40822;DHT22;26542;50.836;5.356;2023-04-08T12:47:19;17.50;92.60
40822;DHT22;26542;50.836;5.356;2023-04-08T12:49:44;17.50;93.60
40822;DHT22;26542;50.836;5.356;2023-04-08T12:52:10;17.50;94.10
40822;DHT22;26542;50.836;5.356;2023-04-08T12:54:36;17.60;93.20
40822;DHT22;26542;50.836;5.356;2023-04-08T12:57:01;17.70;93.20
40822;DHT22;26542;50.836;5.356;2023-04-08T12:59:27;17.90;93.00
40822;DHT22;26542;50.836;5.356;2023-04-08T13:01:53;18.00;92.90
40822;DHT22;26542;50.836;5.356;2023-04-08T13:04:20;18.00;93.40
40822;DHT22;26542;50.836;5.356;2023-04-08T13:06:45;18.10;92.30
40822;DHT22;26542;50.836;5.356;2023-04-08T13:09:11;18.20;92.30
40822;DHT22;26542;50.836;5.356;2023-04-08T13:11:37;18.40;90.80
40822;DHT22;26542;50.836;5.356;2023-04-08T13:14:02;18.40;91.50
40822;DHT22;26542;50.836;5.356;2023-04-08T13:16:28;18.50;90.20
40822;DHT22;26542;50.836;5.356;2023-04-08T13:18:53;18.50;91.80
40822;DHT22;26542;50.836;5.356;2023-04-08T13:21:19;18.60;91.30
40822;DHT22;26542;50.836;5.356;2023-04-08T13:23:45;18.60;91.00
40822;DHT22;26542;50.836;5.356;2023-04-08T13:26:11;18.60;88.70
40822;DHT22;26542;50.836;5.356;2023-04-08T13:28:37;18.60;90.00
40822;DHT22;26542;50.836;5.356;2023-04-08T13:31:03;18.60;87.40
40822;DHT22;26542;50.836;5.356;2023-04-08T13:33:28;18.60;89.00
40822;DHT22;26542;50.836;5.356;2023-04-08T13:35:54;18.70;90.10
40822;DHT22;26542;50.836;5.356;2023-04-08T13:38:20;18.70;91.70
40822;DHT22;26542;50.836;5.356;2023-04-08T13:40:45;18.90;89.30
40822;DHT22;26542;50.836;5.356;2023-04-08T13:43:12;18.90;86.80
40822;DHT22;26542;50.836;5.356;2023-04-08T13:45:37;19.00;87.00
40822;DHT22;26542;50.836;5.356;2023-04-08T13:48:03;19.10;87.50
40822;DHT22;26542;50.836;5.356;2023-04-08T13:50:29;19.20;84.70
40822;DHT22;26542;50.836;5.356;2023-04-08T13:52:54;19.10;86.00
40822;DHT22;26542;50.836;5.356;2023-04-08T13:55:21;19.20;88.10
40822;DHT22;26542;50.836;5.356;2023-04-08T13:57:47;19.40;87.30
40822;DHT22;26542;50.836;5.356;2023-04-08T14:00:13;19.40;87.60
40822;DHT22;26542;50.836;5.356;2023-04-08T14:02:38;19.60;90.40
40822;DHT22;26542;50.836;5.356;2023-04-08T14:05:05;19.40;87.30
40822;DHT22;26542;50.836;5.356;2023-04-08T14:07:31;19.20;87.30
40822;DHT22;26542;50.836;5.356;2023-04-08T14:09:57;19.10;85.90
40822;DHT22;26542;50.836;5.356;2023-04-08T14:12:22;19.00;86.80
40822;DHT22;26542;50.836;5.356;2023-04-08T14:14:48;19.10;88.70
40822;DHT22;26542;50.836;5.356;2023-04-08T14:17:13;18.90;86.90
40822;DHT22;26542;50.836;5.356;2023-04-08T14:19:40;18.60;87.80
40822;DHT22;26542;50.836;5.356;2023-04-08T14:22:06;18.40;87.50
40822;DHT22;26542;50.836;5.356;2023-04-08T14:24:32;18.30;89.00
40822;DHT22;26542;50.836;5.356;2023-04-08T14:26:58;18.20;87.80
40822;DHT22;26542;50.836;5.356;2023-04-08T14:29:24;18.30;87.20
40822;DHT22;26542;50.836;5.356;2023-04-08T14:31:50;18.40;89.40
40822;DHT22;26542;50.836;5.356;2023-04-08T14:34:16;18.60;89.00
40822;DHT22;26542;50.836;5.356;2023-04-08T14:36:42;18.80;83.30
40822;DHT22;26542;50.836;5.356;2023-04-08T14:39:09;18.90;87.60
40822;DHT22;26542;50.836;5.356;2023-04-08T14:41:36;19.00;87.70
40822;DHT22;26542;50.836;5.356;2023-04-08T14:44:02;19.00;87.60
40822;DHT22;26542;50.836;5.356;2023-04-08T14:46:28;19.00;83.00
40822;DHT22;26542;50.836;5.356;2023-04-08T14:48:54;19.00;85.70
40822;DHT22;26542;50.836;5.356;2023-04-08T14:51:20;18.90;84.60
40822;DHT22;26542;50.836;5.356;2023-04-08T14:53:45;19.00;80.70
40822;DHT22;26542;50.836;5.356;2023-04-08T14:56:11;18.90;82.10
40822;DHT22;26542;50.836;5.356;2023-04-08T14:58:37;18.70;83.50
40822;DHT22;26542;50.836;5.356;2023-04-08T15:01:03;18.70;81.70
40822;DHT22;26542;50.836;5.356;2023-04-08T15:03:29;18.50;80.10
40822;DHT22;26542;50.836;5.356;2023-04-08T15:05:55;18.40;84.50
40822;DHT22;26542;50.836;5.356;2023-04-08T15:08:21;18.30;83.70
40822;DHT22;26542;50.836;5.356;2023-04-08T15:10:46;18.20;80.40
40822;DHT22;26542;50.836;5.356;2023-04-08T15:13:12;18.30;81.30
40822;DHT22;26542;50.836;5.356;2023-04-08T15:15:38;18.40;81.10
40822;DHT22;26542;50.836;5.356;2023-04-08T15:18:03;18.50;82.90
40822;DHT22;26542;50.836;5.356;2023-04-08T15:20:29;18.50;81.60
40822;DHT22;26542;50.836;5.356;2023-04-08T15:22:54;18.60;82.80
40822;DHT22;26542;50.836;5.356;2023-04-08T15:25:20;18.60;83.90
40822;DHT22;26542;50.836;5.356;2023-04-08T15:27:47;18.80;84.30
40822;DHT22;26542;50.836;5.356;2023-04-08T15:30:13;18.80;83.90
40822;DHT22;26542;50.836;5.356;2023-04-08T15:32:39;18.70;86.80
40822;DHT22;26542;50.836;5.356;2023-04-08T15:35:06;18.80;85.60
40822;DHT22;26542;50.836;5.356;2023-04-08T15:37:32;18.70;84.70
40822;DHT22;26542;50.836;5.356;2023-04-08T15:39:57;18.40;82.50